sensor_id;sensor_type;location;lat;lon;timestamp;P1;durP1;ratioP1;P2;durP2;ratioP2
79751;SDS011;69234;47.446;21.636;2024-01-07T00:00:10;19.97;;;19.77;;
79751;SDS011;69234;47.446;21.636;2024-01-07T00:00:42;20.23;;;20.00;;
79751;SDS011;69234;47.446;21.636;2024-01-07T00:01:12;21.13;;;20.80;;
79751;SDS011;69234;47.446;21.636;2024-01-07T00:01:46;20.73;;;20.37;;
79751;SDS011;69234;47.446;21.636;2024-01-07T00:02:19;21.13;;;20.93;;
79751;SDS011;69234;47.446;21.636;2024-01-07T00:02:50;20.47;;;20.47;;
79751;SDS011;69234;47.446;21.636;2024-01-07T00:03:21;19.63;;;19.47;;
79751;SDS011;69234;47.446;21.636;2024-01-07T00:03:52;20.37;;;20.03;;
79751;SDS011;69234;47.446;21.636;2024-01-07T00:04:23;21.00;;;20.63;;
79751;SDS011;69234;47.446;21.636;2024-01-07T00:04:53;20.87;;;20.47;;
79751;SDS011;69234;47.446;21.636;2024-01-07T00:05:24;21.03;;;20.57;;
79751;SDS011;69234;47.446;21.636;2024-01-07T00:05:55;21.37;;;20.90;;
79751;SDS011;69234;47.446;21.636;2024-01-07T00:06:26;20.97;;;20.60;;
79751;SDS011;69234;47.446;21.636;2024-01-07T00:06:57;20.77;;;20.47;;
79751;SDS011;69234;47.446;21.636;2024-01-07T00:07:28;20.90;;;20.80;;
79751;SDS011;69234;47.446;21.636;2024-01-07T00:07:59;21.70;;;21.70;;
79751;SDS011;69234;47.446;21.636;2024-01-07T00:08:30;21.07;;;21.03;;
79751;SDS011;69234;47.446;21.636;2024-01-07T00:09:01;20.30;;;20.27;;
79751;SDS011;69234;47.446;21.636;2024-01-07T00:09:32;20.13;;;20.03;;
79751;SDS011;69234;47.446;21.636;2024-01-07T00:10:03;21.10;;;20.73;;
79751;SDS011;69234;47.446;21.636;2024-01-07T00:10:34;20.77;;;20.30;;
79751;SDS011;69234;47.446;21.636;2024-01-07T00:11:05;20.17;;;19.73;;
79751;SDS011;69234;47.446;21.636;2024-01-07T00:11:36;20.10;;;19.77;;
79751;SDS011;69234;47.446;21.636;2024-01-07T00:12:07;20.40;;;20.10;;
79751;SDS011;69234;47.446;21.636;2024-01-07T00:12:37;21.07;;;20.70;;
79751;SDS011;69234;47.446;21.636;2024-01-07T00:13:08;21.43;;;21.07;;
79751;SDS011;69234;47.446;21.636;2024-01-07T00:13:39;20.83;;;20.77;;
79751;SDS011;69234;47.446;21.636;2024-01-07T00:14:10;20.47;;;20.23;;
79751;SDS011;69234;47.446;21.636;2024-01-07T00:14:41;20.67;;;20.30;;
79751;SDS011;69234;47.446;21.636;2024-01-07T00:15:12;20.10;;;19.67;;
79751;SDS011;69234;47.446;21.636;2024-01-07T00:15:43;21.30;;;20.87;;
79751;SDS011;69234;47.446;21.636;2024-01-07T00:16:14;21.20;;;20.70;;
79751;SDS011;69234;47.446;21.636;2024-01-07T00:16:45;21.50;;;21.07;;
79751;SDS011;69234;47.446;21.636;2024-01-07T00:17:16;21.10;;;20.73;;
79751;SDS011;69234;47.446;21.636;2024-01-07T00:17:47;21.50;;;21.13;;
79751;SDS011;69234;47.446;21.636;2024-01-07T00:18:17;21.27;;;20.83;;
79751;SDS011;69234;47.446;21.636;2024-01-07T00:18:48;21.80;;;21.50;;
79751;SDS011;69234;47.446;21.636;2024-01-07T00:19:19;20.80;;;20.57;;
79751;SDS011;69234;47.446;21.636;2024-01-07T00:19:50;22.10;;;21.73;;
79751;SDS011;69234;47.446;21.636;2024-01-07T00:20:21;22.37;;;21.97;;
79751;SDS011;69234;47.446;21.636;2024-01-07T00:20:53;20.67;;;20.37;;
79751;SDS011;69234;47.446;21.636;2024-01-07T00:21:24;21.10;;;20.83;;
79751;SDS011;69234;47.446;21.636;2024-01-07T00:21:55;20.37;;;20.10;;
79751;SDS011;69234;47.446;21.636;2024-01-07T00:22:25;21.07;;;20.73;;
79751;SDS011;69234;47.446;21.636;2024-01-07T00:22:56;21.30;;;21.00;;
79751;SDS011;69234;47.446;21.636;2024-01-07T00:23:27;21.23;;;20.83;;
79751;SDS011;69234;47.446;21.636;2024-01-07T00:23:58;21.27;;;20.87;;
79751;SDS011;69234;47.446;21.636;2024-01-07T00:24:29;21.30;;;20.93;;
79751;SDS011;69234;47.446;21.636;2024-01-07T00:25:00;22.37;;;21.87;;
79751;SDS011;69234;47.446;21.636;2024-01-07T00:25:31;22.57;;;21.90;;
79751;SDS011;69234;47.446;21.636;2024-01-07T00:26:02;23.07;;;22.37;;
79751;SDS011;69234;47.446;21.636;2024-01-07T00:26:33;22.63;;;22.00;;
79751;SDS011;69234;47.446;21.636;2024-01-07T00:27:04;22.30;;;21.80;;
79751;SDS011;69234;47.446;21.636;2024-01-07T00:27:35;22.57;;;22.10;;
79751;SDS011;69234;47.446;21.636;2024-01-07T00:28:06;24.07;;;23.50;;
79751;SDS011;69234;47.446;21.636;2024-01-07T00:28:37;25.40;;;24.67;;
79751;SDS011;69234;47.446;21.636;2024-01-07T00:29:08;26.10;;;25.50;;
79751;SDS011;69234;47.446;21.636;2024-01-07T00:29:39;24.77;;;24.17;;
79751;SDS011;69234;47.446;21.636;2024-01-07T00:30:10;26.27;;;25.67;;
79751;SDS011;69234;47.446;21.636;2024-01-07T00:30:41;27.53;;;26.93;;
79751;SDS011;69234;47.446;21.636;2024-01-07T00:31:12;27.57;;;26.87;;
79751;SDS011;69234;47.446;21.636;2024-01-07T00:31:43;28.60;;;27.83;;
79751;SDS011;69234;47.446;21.636;2024-01-07T00:32:14;28.93;;;28.23;;
79751;SDS011;69234;47.446;21.636;2024-01-07T00:32:45;30.30;;;29.47;;
79751;SDS011;69234;47.446;21.636;2024-01-07T00:33:16;31.07;;;29.90;;
79751;SDS011;69234;47.446;21.636;2024-01-07T00:33:47;28.13;;;27.20;;
79751;SDS011;69234;47.446;21.636;2024-01-07T00:34:18;27.70;;;26.90;;
79751;SDS011;69234;47.446;21.636;2024-01-07T00:34:49;30.20;;;29.53;;
79751;SDS011;69234;47.446;21.636;2024-01-07T00:35:20;30.90;;;29.97;;
79751;SDS011;69234;47.446;21.636;2024-01-07T00:35:51;28.70;;;27.83;;
79751;SDS011;69234;47.446;21.636;2024-01-07T00:36:22;30.43;;;29.53;;
79751;SDS011;69234;47.446;21.636;2024-01-07T00:36:52;35.57;;;34.13;;
79751;SDS011;69234;47.446;21.636;2024-01-07T00:37:23;36.63;;;35.17;;
79751;SDS011;69234;47.446;21.636;2024-01-07T00:37:55;35.17;;;34.03;;
79751;SDS011;69234;47.446;21.636;2024-01-07T00:38:28;34.33;;;33.40;;
79751;SDS011;69234;47.446;21.636;2024-01-07T00:38:59;31.77;;;30.83;;
79751;SDS011;69234;47.446;21.636;2024-01-07T00:39:30;27.67;;;26.97;;
79751;SDS011;69234;47.446;21.636;2024-01-07T00:40:01;30.03;;;29.13;;
79751;SDS011;69234;47.446;21.636;2024-01-07T00:40:32;31.00;;;29.97;;
79751;SDS011;69234;47.446;21.636;2024-01-07T00:41:03;27.57;;;26.63;;
79751;SDS011;69234;47.446;21.636;2024-01-07T00:41:34;25.13;;;24.33;;
79751;SDS011;69234;47.446;21.636;2024-01-07T00:42:05;24.57;;;24.03;;
79751;SDS011;69234;47.446;21.636;2024-01-07T00:42:36;23.03;;;22.50;;
79751;SDS011;69234;47.446;21.636;2024-01-07T00:43:07;23.43;;;22.97;;
79751;SDS011;69234;47.446;21.636;2024-01-07T00:43:38;23.80;;;23.37;;
79751;SDS011;69234;47.446;21.636;2024-01-07T00:44:09;22.40;;;22.00;;
79751;SDS011;69234;47.446;21.636;2024-01-07T00:44:40;22.33;;;21.83;;
79751;SDS011;69234;47.446;21.636;2024-01-07T00:45:11;22.87;;;22.37;;
79751;SDS011;69234;47.446;21.636;2024-01-07T00:45:42;22.80;;;22.23;;
79751;SDS011;69234;47.446;21.636;2024-01-07T00:46:13;22.83;;;22.10;;
79751;SDS011;69234;47.446;21.636;2024-01-07T00:46:44;22.33;;;21.73;;
79751;SDS011;69234;47.446;21.636;2024-01-07T00:47:15;23.07;;;22.57;;
79751;SDS011;69234;47.446;21.636;2024-01-07T00:47:46;21.20;;;20.73;;
79751;SDS011;69234;47.446;21.636;2024-01-07T00:48:16;21.03;;;20.53;;
79751;SDS011;69234;47.446;21.636;2024-01-07T00:48:47;21.50;;;21.10;;
79751;SDS011;69234;47.446;21.636;2024-01-07T00:49:18;20.80;;;20.50;;
79751;SDS011;69234;47.446;21.636;2024-01-07T00:49:49;21.93;;;21.57;;
79751;SDS011;69234;47.446;21.636;2024-01-07T00:50:20;21.63;;;21.23;;
79751;SDS011;69234;47.446;21.636;2024-01-07T00:50:51;21.13;;;20.70;;
79751;SDS011;69234;47.446;21.636;2024-01-07T00:51:22;21.33;;;20.87;;
79751;SDS011;69234;47.446;21.636;2024-01-07T00:51:53;21.10;;;20.60;;
79751;SDS011;69234;47.446;21.636;2024-01-07T00:52:24;21.37;;;20.93;;
79751;SDS011;69234;47.446;21.636;2024-01-07T00:52:55;21.67;;;21.17;;
79751;SDS011;69234;47.446;21.636;2024-01-07T00:53:26;21.27;;;20.70;;
79751;SDS011;69234;47.446;21.636;2024-01-07T00:53:57;22.80;;;22.20;;
79751;SDS011;69234;47.446;21.636;2024-01-07T00:54:28;22.10;;;21.67;;
79751;SDS011;69234;47.446;21.636;2024-01-07T00:54:59;21.40;;;20.90;;
79751;SDS011;69234;47.446;21.636;2024-01-07T00:55:30;21.67;;;21.13;;
79751;SDS011;69234;47.446;21.636;2024-01-07T00:56:01;21.17;;;20.87;;
79751;SDS011;69234;47.446;21.636;2024-01-07T00:56:32;22.03;;;21.63;;
79751;SDS011;69234;47.446;21.636;2024-01-07T00:57:04;21.77;;;21.30;;
79751;SDS011;69234;47.446;21.636;2024-01-07T00:57:35;21.27;;;20.87;;
79751;SDS011;69234;47.446;21.636;2024-01-07T00:58:06;21.10;;;20.90;;
79751;SDS011;69234;47.446;21.636;2024-01-07T00:58:37;22.10;;;21.67;;
79751;SDS011;69234;47.446;21.636;2024-01-07T00:59:08;22.37;;;21.83;;
79751;SDS011;69234;47.446;21.636;2024-01-07T00:59:39;22.97;;;22.37;;
79751;SDS011;69234;47.446;21.636;2024-01-07T01:00:10;22.33;;;21.77;;
79751;SDS011;69234;47.446;21.636;2024-01-07T01:00:41;22.83;;;22.23;;
79751;SDS011;69234;47.446;21.636;2024-01-07T01:01:12;20.97;;;20.47;;
79751;SDS011;69234;47.446;21.636;2024-01-07T01:01:43;20.60;;;20.17;;
79751;SDS011;69234;47.446;21.636;2024-01-07T01:02:14;22.27;;;21.70;;
79751;SDS011;69234;47.446;21.636;2024-01-07T01:02:45;21.67;;;21.13;;
79751;SDS011;69234;47.446;21.636;2024-01-07T01:03:17;21.73;;;21.27;;
79751;SDS011;69234;47.446;21.636;2024-01-07T01:03:48;22.33;;;21.83;;
79751;SDS011;69234;47.446;21.636;2024-01-07T01:04:19;22.83;;;22.37;;
79751;SDS011;69234;47.446;21.636;2024-01-07T01:04:50;22.90;;;22.40;;
79751;SDS011;69234;47.446;21.636;2024-01-07T01:05:21;22.03;;;21.53;;
79751;SDS011;69234;47.446;21.636;2024-01-07T01:05:52;22.13;;;21.60;;
79751;SDS011;69234;47.446;21.636;2024-01-07T01:06:23;22.53;;;22.03;;
79751;SDS011;69234;47.446;21.636;2024-01-07T01:06:54;22.63;;;22.17;;
79751;SDS011;69234;47.446;21.636;2024-01-07T01:07:26;23.70;;;23.33;;
79751;SDS011;69234;47.446;21.636;2024-01-07T01:07:56;24.40;;;24.00;;
79751;SDS011;69234;47.446;21.636;2024-01-07T01:08:30;22.13;;;21.80;;
79751;SDS011;69234;47.446;21.636;2024-01-07T01:09:01;22.00;;;21.60;;
79751;SDS011;69234;47.446;21.636;2024-01-07T01:09:32;21.73;;;21.33;;
79751;SDS011;69234;47.446;21.636;2024-01-07T01:10:03;22.40;;;21.83;;
79751;SDS011;69234;47.446;21.636;2024-01-07T01:10:35;23.10;;;22.43;;
79751;SDS011;69234;47.446;21.636;2024-01-07T01:11:08;23.87;;;23.10;;
79751;SDS011;69234;47.446;21.636;2024-01-07T01:11:40;24.73;;;24.00;;
79751;SDS011;69234;47.446;21.636;2024-01-07T01:12:11;24.37;;;23.63;;
79751;SDS011;69234;47.446;21.636;2024-01-07T01:12:42;24.60;;;23.80;;
79751;SDS011;69234;47.446;21.636;2024-01-07T01:13:14;23.37;;;22.77;;
79751;SDS011;69234;47.446;21.636;2024-01-07T01:13:45;23.93;;;23.40;;
79751;SDS011;69234;47.446;21.636;2024-01-07T01:14:16;23.23;;;22.70;;
79751;SDS011;69234;47.446;21.636;2024-01-07T01:14:47;23.73;;;23.20;;
79751;SDS011;69234;47.446;21.636;2024-01-07T01:15:18;22.53;;;22.07;;
79751;SDS011;69234;47.446;21.636;2024-01-07T01:15:49;22.80;;;22.13;;
79751;SDS011;69234;47.446;21.636;2024-01-07T01:16:20;23.80;;;23.07;;
79751;SDS011;69234;47.446;21.636;2024-01-07T01:16:51;22.30;;;21.63;;
79751;SDS011;69234;47.446;21.636;2024-01-07T01:17:22;22.87;;;22.20;;
79751;SDS011;69234;47.446;21.636;2024-01-07T01:17:53;23.63;;;23.03;;
79751;SDS011;69234;47.446;21.636;2024-01-07T01:18:24;23.37;;;22.93;;
79751;SDS011;69234;47.446;21.636;2024-01-07T01:18:55;21.67;;;21.37;;
79751;SDS011;69234;47.446;21.636;2024-01-07T01:19:26;22.40;;;22.03;;
79751;SDS011;69234;47.446;21.636;2024-01-07T01:19:57;22.20;;;21.70;;
79751;SDS011;69234;47.446;21.636;2024-01-07T01:20:28;21.93;;;21.67;;
79751;SDS011;69234;47.446;21.636;2024-01-07T01:20:59;22.50;;;22.37;;
79751;SDS011;69234;47.446;21.636;2024-01-07T01:21:29;22.70;;;22.57;;
79751;SDS011;69234;47.446;21.636;2024-01-07T01:22:00;22.50;;;22.07;;
79751;SDS011;69234;47.446;21.636;2024-01-07T01:22:31;23.23;;;22.83;;
79751;SDS011;69234;47.446;21.636;2024-01-07T01:23:02;23.17;;;22.63;;
79751;SDS011;69234;47.446;21.636;2024-01-07T01:23:34;23.00;;;22.60;;
79751;SDS011;69234;47.446;21.636;2024-01-07T01:24:05;23.00;;;22.60;;
79751;SDS011;69234;47.446;21.636;2024-01-07T01:24:36;22.60;;;22.20;;
79751;SDS011;69234;47.446;21.636;2024-01-07T01:25:07;23.50;;;23.17;;
79751;SDS011;69234;47.446;21.636;2024-01-07T01:25:40;23.77;;;23.37;;
79751;SDS011;69234;47.446;21.636;2024-01-07T01:26:11;23.17;;;22.93;;
79751;SDS011;69234;47.446;21.636;2024-01-07T01:26:42;22.97;;;22.83;;
79751;SDS011;69234;47.446;21.636;2024-01-07T01:27:13;23.30;;;22.90;;
79751;SDS011;69234;47.446;21.636;2024-01-07T01:27:45;24.40;;;23.87;;
79751;SDS011;69234;47.446;21.636;2024-01-07T01:28:16;23.60;;;23.13;;
79751;SDS011;69234;47.446;21.636;2024-01-07T01:28:47;24.13;;;23.70;;
79751;SDS011;69234;47.446;21.636;2024-01-07T01:29:18;23.70;;;23.20;;
79751;SDS011;69234;47.446;21.636;2024-01-07T01:29:49;23.63;;;23.13;;
79751;SDS011;69234;47.446;21.636;2024-01-07T01:30:20;23.47;;;22.97;;
79751;SDS011;69234;47.446;21.636;2024-01-07T01:30:51;25.40;;;24.80;;
79751;SDS011;69234;47.446;21.636;2024-01-07T01:31:22;26.33;;;25.73;;
79751;SDS011;69234;47.446;21.636;2024-01-07T01:31:52;24.73;;;24.33;;
79751;SDS011;69234;47.446;21.636;2024-01-07T01:32:23;24.63;;;24.03;;
79751;SDS011;69234;47.446;21.636;2024-01-07T01:32:54;23.53;;;23.00;;
79751;SDS011;69234;47.446;21.636;2024-01-07T01:33:25;24.03;;;23.53;;
79751;SDS011;69234;47.446;21.636;2024-01-07T01:33:56;24.97;;;24.47;;
79751;SDS011;69234;47.446;21.636;2024-01-07T01:34:27;24.20;;;23.70;;
79751;SDS011;69234;47.446;21.636;2024-01-07T01:34:58;23.90;;;23.33;;
79751;SDS011;69234;47.446;21.636;2024-01-07T01:35:29;24.43;;;23.83;;
79751;SDS011;69234;47.446;21.636;2024-01-07T01:36:03;24.70;;;24.13;;
79751;SDS011;69234;47.446;21.636;2024-01-07T01:36:36;24.87;;;24.63;;
79751;SDS011;69234;47.446;21.636;2024-01-07T01:37:08;24.33;;;24.27;;
79751;SDS011;69234;47.446;21.636;2024-01-07T01:37:39;24.13;;;24.07;;
79751;SDS011;69234;47.446;21.636;2024-01-07T01:38:10;24.23;;;23.90;;
79751;SDS011;69234;47.446;21.636;2024-01-07T01:38:41;24.77;;;24.23;;
79751;SDS011;69234;47.446;21.636;2024-01-07T01:39:12;24.67;;;24.13;;
79751;SDS011;69234;47.446;21.636;2024-01-07T01:39:43;25.60;;;25.07;;
79751;SDS011;69234;47.446;21.636;2024-01-07T01:40:16;24.53;;;24.00;;
79751;SDS011;69234;47.446;21.636;2024-01-07T01:40:53;24.83;;;24.43;;
79751;SDS011;69234;47.446;21.636;2024-01-07T01:41:25;25.13;;;24.70;;
79751;SDS011;69234;47.446;21.636;2024-01-07T01:41:55;25.60;;;25.17;;
79751;SDS011;69234;47.446;21.636;2024-01-07T01:42:28;25.47;;;25.03;;
79751;SDS011;69234;47.446;21.636;2024-01-07T01:42:59;25.60;;;25.10;;
79751;SDS011;69234;47.446;21.636;2024-01-07T01:43:30;25.67;;;25.20;;
79751;SDS011;69234;47.446;21.636;2024-01-07T01:44:01;25.27;;;24.77;;
79751;SDS011;69234;47.446;21.636;2024-01-07T01:44:32;25.43;;;24.83;;
79751;SDS011;69234;47.446;21.636;2024-01-07T01:45:03;25.43;;;24.80;;
79751;SDS011;69234;47.446;21.636;2024-01-07T01:45:34;24.47;;;24.00;;
79751;SDS011;69234;47.446;21.636;2024-01-07T01:46:05;25.20;;;24.77;;
79751;SDS011;69234;47.446;21.636;2024-01-07T01:46:38;25.57;;;25.13;;
79751;SDS011;69234;47.446;21.636;2024-01-07T01:47:09;25.47;;;25.13;;
79751;SDS011;69234;47.446;21.636;2024-01-07T01:47:41;24.60;;;24.47;;
79751;SDS011;69234;47.446;21.636;2024-01-07T01:48:13;25.17;;;24.73;;
79751;SDS011;69234;47.446;21.636;2024-01-07T01:48:44;25.87;;;25.27;;
79751;SDS011;69234;47.446;21.636;2024-01-07T01:49:15;25.23;;;24.70;;
79751;SDS011;69234;47.446;21.636;2024-01-07T01:49:47;25.63;;;25.07;;
79751;SDS011;69234;47.446;21.636;2024-01-07T01:50:18;27.00;;;26.10;;
79751;SDS011;69234;47.446;21.636;2024-01-07T01:50:49;26.37;;;25.53;;
79751;SDS011;69234;47.446;21.636;2024-01-07T01:51:20;26.27;;;25.47;;
79751;SDS011;69234;47.446;21.636;2024-01-07T01:51:52;25.80;;;25.00;;
79751;SDS011;69234;47.446;21.636;2024-01-07T01:52:24;26.10;;;25.47;;
79751;SDS011;69234;47.446;21.636;2024-01-07T01:52:55;26.63;;;25.97;;
79751;SDS011;69234;47.446;21.636;2024-01-07T01:53:26;26.40;;;25.87;;
79751;SDS011;69234;47.446;21.636;2024-01-07T01:53:58;25.17;;;24.77;;
79751;SDS011;69234;47.446;21.636;2024-01-07T01:54:30;26.00;;;25.47;;
79751;SDS011;69234;47.446;21.636;2024-01-07T01:55:01;26.37;;;25.83;;
79751;SDS011;69234;47.446;21.636;2024-01-07T01:55:32;25.63;;;25.43;;
79751;SDS011;69234;47.446;21.636;2024-01-07T01:56:04;27.57;;;27.23;;
79751;SDS011;69234;47.446;21.636;2024-01-07T01:56:35;26.70;;;26.70;;
79751;SDS011;69234;47.446;21.636;2024-01-07T01:57:07;26.97;;;26.67;;
79751;SDS011;69234;47.446;21.636;2024-01-07T01:57:44;28.30;;;27.50;;
79751;SDS011;69234;47.446;21.636;2024-01-07T01:58:18;27.77;;;27.20;;
79751;SDS011;69234;47.446;21.636;2024-01-07T01:58:50;27.37;;;27.20;;
79751;SDS011;69234;47.446;21.636;2024-01-07T01:59:21;27.27;;;26.83;;
79751;SDS011;69234;47.446;21.636;2024-01-07T01:59:53;25.80;;;25.33;;
79751;SDS011;69234;47.446;21.636;2024-01-07T02:00:25;27.03;;;26.50;;
79751;SDS011;69234;47.446;21.636;2024-01-07T02:00:57;27.50;;;26.93;;
79751;SDS011;69234;47.446;21.636;2024-01-07T02:01:29;27.50;;;26.93;;
79751;SDS011;69234;47.446;21.636;2024-01-07T02:02:01;28.00;;;27.33;;
79751;SDS011;69234;47.446;21.636;2024-01-07T02:02:33;27.30;;;26.53;;
79751;SDS011;69234;47.446;21.636;2024-01-07T02:03:04;27.00;;;26.37;;
79751;SDS011;69234;47.446;21.636;2024-01-07T02:03:35;26.77;;;26.10;;
79751;SDS011;69234;47.446;21.636;2024-01-07T02:04:06;27.17;;;26.50;;
79751;SDS011;69234;47.446;21.636;2024-01-07T02:04:40;27.03;;;26.43;;
79751;SDS011;69234;47.446;21.636;2024-01-07T02:05:11;26.93;;;26.43;;
79751;SDS011;69234;47.446;21.636;2024-01-07T02:05:44;27.23;;;26.80;;
79751;SDS011;69234;47.446;21.636;2024-01-07T02:06:15;28.70;;;28.07;;
79751;SDS011;69234;47.446;21.636;2024-01-07T02:06:46;28.63;;;27.90;;
79751;SDS011;69234;47.446;21.636;2024-01-07T02:07:17;28.87;;;28.07;;
79751;SDS011;69234;47.446;21.636;2024-01-07T02:07:48;28.17;;;27.47;;
79751;SDS011;69234;47.446;21.636;2024-01-07T02:08:20;29.20;;;28.40;;
79751;SDS011;69234;47.446;21.636;2024-01-07T02:08:51;27.93;;;27.33;;
79751;SDS011;69234;47.446;21.636;2024-01-07T02:09:22;28.17;;;27.77;;
79751;SDS011;69234;47.446;21.636;2024-01-07T02:09:54;28.10;;;27.57;;
79751;SDS011;69234;47.446;21.636;2024-01-07T02:10:24;28.17;;;27.97;;
79751;SDS011;69234;47.446;21.636;2024-01-07T02:10:55;27.10;;;27.00;;
79751;SDS011;69234;47.446;21.636;2024-01-07T02:11:27;26.77;;;26.67;;
79751;SDS011;69234;47.446;21.636;2024-01-07T02:12:04;27.03;;;27.00;;
79751;SDS011;69234;47.446;21.636;2024-01-07T02:12:36;26.97;;;26.80;;
79751;SDS011;69234;47.446;21.636;2024-01-07T02:13:07;26.87;;;26.40;;
79751;SDS011;69234;47.446;21.636;2024-01-07T02:13:38;26.83;;;26.23;;
79751;SDS011;69234;47.446;21.636;2024-01-07T02:14:08;27.77;;;27.20;;
79751;SDS011;69234;47.446;21.636;2024-01-07T02:14:39;28.17;;;27.57;;
79751;SDS011;69234;47.446;21.636;2024-01-07T02:15:10;27.13;;;26.63;;
79751;SDS011;69234;47.446;21.636;2024-01-07T02:15:42;28.03;;;27.50;;
79751;SDS011;69234;47.446;21.636;2024-01-07T02:16:13;28.30;;;27.77;;
79751;SDS011;69234;47.446;21.636;2024-01-07T02:16:45;28.63;;;28.03;;
79751;SDS011;69234;47.446;21.636;2024-01-07T02:17:15;27.93;;;27.37;;
79751;SDS011;69234;47.446;21.636;2024-01-07T02:17:47;27.70;;;27.13;;
79751;SDS011;69234;47.446;21.636;2024-01-07T02:18:18;27.10;;;26.60;;
79751;SDS011;69234;47.446;21.636;2024-01-07T02:18:49;27.33;;;26.90;;
79751;SDS011;69234;47.446;21.636;2024-01-07T02:19:20;27.43;;;27.00;;
79751;SDS011;69234;47.446;21.636;2024-01-07T02:19:52;26.70;;;26.20;;
79751;SDS011;69234;47.446;21.636;2024-01-07T02:20:23;27.73;;;27.13;;
79751;SDS011;69234;47.446;21.636;2024-01-07T02:20:54;27.47;;;27.00;;
79751;SDS011;69234;47.446;21.636;2024-01-07T02:21:25;28.13;;;27.67;;
79751;SDS011;69234;47.446;21.636;2024-01-07T02:21:56;29.00;;;28.50;;
79751;SDS011;69234;47.446;21.636;2024-01-07T02:22:27;27.87;;;27.40;;
79751;SDS011;69234;47.446;21.636;2024-01-07T02:22:58;29.07;;;28.50;;
79751;SDS011;69234;47.446;21.636;2024-01-07T02:23:29;28.83;;;28.40;;
79751;SDS011;69234;47.446;21.636;2024-01-07T02:24:03;28.87;;;28.47;;
79751;SDS011;69234;47.446;21.636;2024-01-07T02:24:34;27.90;;;27.70;;
79751;SDS011;69234;47.446;21.636;2024-01-07T02:25:05;27.50;;;27.23;;
79751;SDS011;69234;47.446;21.636;2024-01-07T02:25:37;28.03;;;27.50;;
79751;SDS011;69234;47.446;21.636;2024-01-07T02:26:08;29.13;;;28.50;;
79751;SDS011;69234;47.446;21.636;2024-01-07T02:26:39;29.00;;;28.23;;
79751;SDS011;69234;47.446;21.636;2024-01-07T02:27:10;28.60;;;27.97;;
79751;SDS011;69234;47.446;21.636;2024-01-07T02:27:41;28.33;;;27.57;;
79751;SDS011;69234;47.446;21.636;2024-01-07T02:28:12;29.23;;;28.67;;
79751;SDS011;69234;47.446;21.636;2024-01-07T02:28:43;28.23;;;27.73;;
79751;SDS011;69234;47.446;21.636;2024-01-07T02:29:14;27.23;;;26.90;;
79751;SDS011;69234;47.446;21.636;2024-01-07T02:29:44;27.37;;;27.17;;
79751;SDS011;69234;47.446;21.636;2024-01-07T02:30:15;28.77;;;28.23;;
79751;SDS011;69234;47.446;21.636;2024-01-07T02:30:47;29.03;;;28.37;;
79751;SDS011;69234;47.446;21.636;2024-01-07T02:31:18;28.67;;;27.93;;
79751;SDS011;69234;47.446;21.636;2024-01-07T02:31:49;27.87;;;27.13;;
79751;SDS011;69234;47.446;21.636;2024-01-07T02:32:20;27.33;;;26.73;;
79751;SDS011;69234;47.446;21.636;2024-01-07T02:32:51;27.50;;;27.23;;
79751;SDS011;69234;47.446;21.636;2024-01-07T02:33:22;27.70;;;27.30;;
79751;SDS011;69234;47.446;21.636;2024-01-07T02:33:53;28.07;;;27.70;;
79751;SDS011;69234;47.446;21.636;2024-01-07T02:34:24;29.17;;;28.70;;
79751;SDS011;69234;47.446;21.636;2024-01-07T02:34:54;28.97;;;28.43;;
79751;SDS011;69234;47.446;21.636;2024-01-07T02:35:25;28.33;;;28.03;;
79751;SDS011;69234;47.446;21.636;2024-01-07T02:35:56;28.17;;;28.10;;
79751;SDS011;69234;47.446;21.636;2024-01-07T02:36:28;28.13;;;27.90;;
79751;SDS011;69234;47.446;21.636;2024-01-07T02:36:59;27.77;;;27.40;;
79751;SDS011;69234;47.446;21.636;2024-01-07T02:37:29;28.40;;;27.90;;
79751;SDS011;69234;47.446;21.636;2024-01-07T02:38:01;29.63;;;29.00;;
79751;SDS011;69234;47.446;21.636;2024-01-07T02:38:32;29.20;;;28.43;;
79751;SDS011;69234;47.446;21.636;2024-01-07T02:39:03;28.30;;;27.77;;
79751;SDS011;69234;47.446;21.636;2024-01-07T02:39:34;27.47;;;27.00;;
79751;SDS011;69234;47.446;21.636;2024-01-07T02:40:05;28.27;;;27.73;;
79751;SDS011;69234;47.446;21.636;2024-01-07T02:40:37;28.23;;;27.77;;
79751;SDS011;69234;47.446;21.636;2024-01-07T02:41:07;28.53;;;28.00;;
79751;SDS011;69234;47.446;21.636;2024-01-07T02:41:38;29.10;;;28.53;;
79751;SDS011;69234;47.446;21.636;2024-01-07T02:42:09;28.73;;;28.20;;
79751;SDS011;69234;47.446;21.636;2024-01-07T02:42:40;27.97;;;27.40;;
79751;SDS011;69234;47.446;21.636;2024-01-07T02:43:11;28.00;;;27.30;;
79751;SDS011;69234;47.446;21.636;2024-01-07T02:43:42;28.80;;;28.13;;
79751;SDS011;69234;47.446;21.636;2024-01-07T02:44:13;28.40;;;27.80;;
79751;SDS011;69234;47.446;21.636;2024-01-07T02:44:44;28.20;;;27.67;;
79751;SDS011;69234;47.446;21.636;2024-01-07T02:45:15;28.70;;;28.30;;
79751;SDS011;69234;47.446;21.636;2024-01-07T02:45:46;28.23;;;27.77;;
79751;SDS011;69234;47.446;21.636;2024-01-07T02:46:17;28.10;;;27.70;;
79751;SDS011;69234;47.446;21.636;2024-01-07T02:46:48;28.80;;;28.23;;
79751;SDS011;69234;47.446;21.636;2024-01-07T02:47:19;28.80;;;28.17;;
79751;SDS011;69234;47.446;21.636;2024-01-07T02:47:50;27.67;;;27.30;;
79751;SDS011;69234;47.446;21.636;2024-01-07T02:48:21;27.57;;;27.30;;
79751;SDS011;69234;47.446;21.636;2024-01-07T02:48:51;27.83;;;27.43;;
79751;SDS011;69234;47.446;21.636;2024-01-07T02:49:22;27.93;;;27.43;;
79751;SDS011;69234;47.446;21.636;2024-01-07T02:49:53;28.40;;;27.90;;
79751;SDS011;69234;47.446;21.636;2024-01-07T02:50:24;27.97;;;27.50;;
79751;SDS011;69234;47.446;21.636;2024-01-07T02:50:55;26.93;;;26.40;;
79751;SDS011;69234;47.446;21.636;2024-01-07T02:51:26;27.40;;;26.83;;
79751;SDS011;69234;47.446;21.636;2024-01-07T02:51:57;28.30;;;28.00;;
79751;SDS011;69234;47.446;21.636;2024-01-07T02:52:28;28.10;;;27.60;;
79751;SDS011;69234;47.446;21.636;2024-01-07T02:52:59;27.93;;;27.30;;
79751;SDS011;69234;47.446;21.636;2024-01-07T02:53:30;28.10;;;27.50;;
79751;SDS011;69234;47.446;21.636;2024-01-07T02:54:01;28.13;;;27.53;;
79751;SDS011;69234;47.446;21.636;2024-01-07T02:54:32;28.17;;;27.50;;
79751;SDS011;69234;47.446;21.636;2024-01-07T02:55:03;28.77;;;28.00;;
79751;SDS011;69234;47.446;21.636;2024-01-07T02:55:34;27.47;;;26.80;;
79751;SDS011;69234;47.446;21.636;2024-01-07T02:56:05;27.47;;;26.73;;
79751;SDS011;69234;47.446;21.636;2024-01-07T02:56:38;27.33;;;26.73;;
79751;SDS011;69234;47.446;21.636;2024-01-07T02:57:09;27.77;;;27.23;;
79751;SDS011;69234;47.446;21.636;2024-01-07T02:57:40;27.63;;;27.10;;
79751;SDS011;69234;47.446;21.636;2024-01-07T02:58:11;28.13;;;27.67;;
79751;SDS011;69234;47.446;21.636;2024-01-07T02:58:42;28.30;;;27.90;;
79751;SDS011;69234;47.446;21.636;2024-01-07T02:59:13;28.67;;;27.93;;
79751;SDS011;69234;47.446;21.636;2024-01-07T02:59:44;28.67;;;27.87;;